sensor_id;sensor_type;location;lat;lon;timestamp;temperature;humidity
24252;DHT22;12380;51.118;4.176;2022-07-23T00:02:18;17.10;99.90
24252;DHT22;12380;51.118;4.176;2022-07-23T00:04:44;17.10;99.90
24252;DHT22;12380;51.118;4.176;2022-07-23T00:07:10;17.00;99.90
24252;DHT22;12380;51.118;4.176;2022-07-23T00:09:38;17.00;99.90
24252;DHT22;12380;51.118;4.176;2022-07-23T00:12:07;17.00;99.90
24252;DHT22;12380;51.118;4.176;2022-07-23T00:14:36;17.00;99.90
24252;DHT22;12380;51.118;4.176;2022-07-23T00:17:06;16.90;99.90
24252;DHT22;12380;51.118;4.176;2022-07-23T00:19:34;16.90;99.90
24252;DHT22;12380;51.118;4.176;2022-07-23T00:22:00;16.90;99.90
24252;DHT22;12380;51.118;4.176;2022-07-23T00:24:27;16.80;99.90
24252;DHT22;12380;51.118;4.176;2022-07-23T00:26:52;16.70;99.90
24252;DHT22;12380;51.118;4.176;2022-07-23T00:29:18;16.70;99.90
24252;DHT22;12380;51.118;4.176;2022-07-23T00:31:44;16.70;99.90
24252;DHT22;12380;51.118;4.176;2022-07-23T00:34:10;16.70;99.90
24252;DHT22;12380;51.118;4.176;2022-07-23T00:36:41;16.60;99.90
24252;DHT22;12380;51.118;4.176;2022-07-23T00:39:06;16.60;99.90
24252;DHT22;12380;51.118;4.176;2022-07-23T00:41:37;16.60;99.90
24252;DHT22;12380;51.118;4.176;2022-07-23T00:46:50;16.40;99.90
24252;DHT22;12380;51.118;4.176;2022-07-23T00:49:18;16.40;99.90
24252;DHT22;12380;51.118;4.176;2022-07-23T00:51:45;16.40;99.90
24252;DHT22;12380;51.118;4.176;2022-07-23T00:54:11;16.30;99.90
24252;DHT22;12380;51.118;4.176;2022-07-23T00:56:38;16.20;99.90
24252;DHT22;12380;51.118;4.176;2022-07-23T00:59:08;16.20;99.90
24252;DHT22;12380;51.118;4.176;2022-07-23T01:01:34;16.20;99.90
24252;DHT22;12380;51.118;4.176;2022-07-23T01:04:01;16.10;99.90
24252;DHT22;12380;51.118;4.176;2022-07-23T01:06:28;16.10;99.90
24252;DHT22;12380;51.118;4.176;2022-07-23T01:08:54;16.10;99.90
24252;DHT22;12380;51.118;4.176;2022-07-23T01:11:23;16.10;99.90
24252;DHT22;12380;51.118;4.176;2022-07-23T01:13:50;16.10;99.90
24252;DHT22;12380;51.118;4.176;2022-07-23T01:16:17;16.00;99.90
24252;DHT22;12380;51.118;4.176;2022-07-23T01:18:43;16.00;99.90
24252;DHT22;12380;51.118;4.176;2022-07-23T01:21:12;16.00;99.90
24252;DHT22;12380;51.118;4.176;2022-07-23T01:23:43;15.90;99.90
24252;DHT22;12380;51.118;4.176;2022-07-23T01:26:09;15.80;99.90
24252;DHT22;12380;51.118;4.176;2022-07-23T01:28:35;15.80;99.90
24252;DHT22;12380;51.118;4.176;2022-07-23T01:31:01;15.80;99.90
24252;DHT22;12380;51.118;4.176;2022-07-23T01:33:27;15.80;99.90
24252;DHT22;12380;51.118;4.176;2022-07-23T01:35:53;15.80;99.90
24252;DHT22;12380;51.118;4.176;2022-07-23T01:38:19;15.90;99.90
24252;DHT22;12380;51.118;4.176;2022-07-23T01:40:45;15.90;99.90
24252;DHT22;12380;51.118;4.176;2022-07-23T01:43:11;15.90;99.90
24252;DHT22;12380;51.118;4.176;2022-07-23T01:45:37;15.90;99.90
24252;DHT22;12380;51.118;4.176;2022-07-23T01:48:03;16.00;99.90
24252;DHT22;12380;51.118;4.176;2022-07-23T01:50:29;16.00;99.90
24252;DHT22;12380;51.118;4.176;2022-07-23T01:53:00;15.90;99.90
24252;DHT22;12380;51.118;4.176;2022-07-23T01:55:26;15.90;99.90
24252;DHT22;12380;51.118;4.176;2022-07-23T01:57:52;15.90;99.90
24252;DHT22;12380;51.118;4.176;2022-07-23T02:00:18;15.80;99.90
24252;DHT22;12380;51.118;4.176;2022-07-23T02:02:44;15.80;99.90
24252;DHT22;12380;51.118;4.176;2022-07-23T02:05:14;15.80;99.90
24252;DHT22;12380;51.118;4.176;2022-07-23T02:07:40;15.80;99.90
24252;DHT22;12380;51.118;4.176;2022-07-23T02:10:06;15.80;99.90
24252;DHT22;12380;51.118;4.176;2022-07-23T02:12:33;15.70;99.90
24252;DHT22;12380;51.118;4.176;2022-07-23T02:14:59;15.70;99.90
24252;DHT22;12380;51.118;4.176;2022-07-23T02:17:25;15.70;99.90
24252;DHT22;12380;51.118;4.176;2022-07-23T02:19:51;15.70;99.90
24252;DHT22;12380;51.118;4.176;2022-07-23T02:22:18;15.70;99.90
24252;DHT22;12380;51.118;4.176;2022-07-23T02:24:48;15.60;99.90
24252;DHT22;12380;51.118;4.176;2022-07-23T02:27:17;15.60;99.90
24252;DHT22;12380;51.118;4.176;2022-07-23T02:29:43;15.60;99.90
24252;DHT22;12380;51.118;4.176;2022-07-23T02:32:10;15.50;99.90
24252;DHT22;12380;51.118;4.176;2022-07-23T02:34:36;15.60;99.90
24252;DHT22;12380;51.118;4.176;2022-07-23T02:37:01;15.50;99.90
24252;DHT22;12380;51.118;4.176;2022-07-23T02:39:28;15.50;99.90
24252;DHT22;12380;51.118;4.176;2022-07-23T02:41:53;15.50;99.90
24252;DHT22;12380;51.118;4.176;2022-07-23T02:44:19;15.50;99.90
24252;DHT22;12380;51.118;4.176;2022-07-23T02:46:45;15.50;99.90
24252;DHT22;12380;51.118;4.176;2022-07-23T02:49:11;15.50;99.90
24252;DHT22;12380;51.118;4.176;2022-07-23T02:51:37;15.40;99.90
24252;DHT22;12380;51.118;4.176;2022-07-23T02:54:03;15.40;99.90
24252;DHT22;12380;51.118;4.176;2022-07-23T02:56:29;15.40;99.90
24252;DHT22;12380;51.118;4.176;2022-07-23T02:58:55;15.40;99.90
24252;DHT22;12380;51.118;4.176;2022-07-23T03:01:22;15.40;99.90
24252;DHT22;12380;51.118;4.176;2022-07-23T03:03:51;15.30;99.90
24252;DHT22;12380;51.118;4.176;2022-07-23T03:06:17;15.30;99.90
24252;DHT22;12380;51.118;4.176;2022-07-23T03:08:43;15.30;99.90
24252;DHT22;12380;51.118;4.176;2022-07-23T03:11:09;15.30;99.90
24252;DHT22;12380;51.118;4.176;2022-07-23T03:13:40;15.20;99.90
24252;DHT22;12380;51.118;4.176;2022-07-23T03:16:07;15.20;99.90
24252;DHT22;12380;51.118;4.176;2022-07-23T03:18:33;15.20;99.90
24252;DHT22;12380;51.118;4.176;2022-07-23T03:21:00;15.20;99.90
24252;DHT22;12380;51.118;4.176;2022-07-23T03:23:25;15.10;99.90
24252;DHT22;12380;51.118;4.176;2022-07-23T03:25:52;15.10;99.90
24252;DHT22;12380;51.118;4.176;2022-07-23T03:28:18;15.10;99.90
24252;DHT22;12380;51.118;4.176;2022-07-23T03:30:47;15.10;99.90
24252;DHT22;12380;51.118;4.176;2022-07-23T03:33:15;15.00;99.90
24252;DHT22;12380;51.118;4.176;2022-07-23T03:35:42;15.10;99.90
24252;DHT22;12380;51.118;4.176;2022-07-23T03:38:08;15.10;99.90
24252;DHT22;12380;51.118;4.176;2022-07-23T03:40:35;15.10;99.90
24252;DHT22;12380;51.118;4.176;2022-07-23T03:43:03;15.10;99.90
24252;DHT22;12380;51.118;4.176;2022-07-23T03:45:31;15.10;99.90
24252;DHT22;12380;51.118;4.176;2022-07-23T03:47:57;15.10;99.90
24252;DHT22;12380;51.118;4.176;2022-07-23T03:50:24;15.00;99.90
24252;DHT22;12380;51.118;4.176;2022-07-23T03:52:49;15.00;99.90
24252;DHT22;12380;51.118;4.176;2022-07-23T03:55:15;15.00;99.90
24252;DHT22;12380;51.118;4.176;2022-07-23T03:57:44;15.00;99.90
24252;DHT22;12380;51.118;4.176;2022-07-23T04:00:10;15.00;99.90
24252;DHT22;12380;51.118;4.176;2022-07-23T04:02:37;15.00;99.90
24252;DHT22;12380;51.118;4.176;2022-07-23T04:05:04;15.00;99.90
24252;DHT22;12380;51.118;4.176;2022-07-23T04:07:30;15.00;99.90
24252;DHT22;12380;51.118;4.176;2022-07-23T04:09:56;14.90;99.90
24252;DHT22;12380;51.118;4.176;2022-07-23T04:12:22;14.90;99.90
24252;DHT22;12380;51.118;4.176;2022-07-23T04:14:48;14.90;99.90
24252;DHT22;12380;51.118;4.176;2022-07-23T04:17:14;15.00;99.90
24252;DHT22;12380;51.118;4.176;2022-07-23T04:19:40;14.90;99.90
24252;DHT22;12380;51.118;4.176;2022-07-23T04:22:07;14.90;99.90
24252;DHT22;12380;51.118;4.176;2022-07-23T04:24:34;14.90;99.90
24252;DHT22;12380;51.118;4.176;2022-07-23T04:27:00;14.90;99.90
24252;DHT22;12380;51.118;4.176;2022-07-23T04:29:28;14.90;99.90
24252;DHT22;12380;51.118;4.176;2022-07-23T04:31:54;15.00;99.90
24252;DHT22;12380;51.118;4.176;2022-07-23T04:34:21;15.00;99.90
24252;DHT22;12380;51.118;4.176;2022-07-23T04:36:47;15.00;99.90
24252;DHT22;12380;51.118;4.176;2022-07-23T04:39:13;15.00;99.90
24252;DHT22;12380;51.118;4.176;2022-07-23T04:41:41;15.00;99.90
24252;DHT22;12380;51.118;4.176;2022-07-23T04:44:10;15.00;99.90
24252;DHT22;12380;51.118;4.176;2022-07-23T04:46:38;15.10;99.90
24252;DHT22;12380;51.118;4.176;2022-07-23T04:49:05;15.10;99.90
24252;DHT22;12380;51.118;4.176;2022-07-23T04:51:31;15.10;99.90
24252;DHT22;12380;51.118;4.176;2022-07-23T04:53:57;15.10;99.90
24252;DHT22;12380;51.118;4.176;2022-07-23T04:56:26;15.10;99.90
24252;DHT22;12380;51.118;4.176;2022-07-23T04:58:52;15.20;99.90
24252;DHT22;12380;51.118;4.176;2022-07-23T05:01:18;15.20;99.90
24252;DHT22;12380;51.118;4.176;2022-07-23T05:03:45;15.30;99.90
24252;DHT22;12380;51.118;4.176;2022-07-23T05:06:11;15.30;99.90
24252;DHT22;12380;51.118;4.176;2022-07-23T05:08:37;15.40;99.90
24252;DHT22;12380;51.118;4.176;2022-07-23T05:11:06;15.40;99.90
24252;DHT22;12380;51.118;4.176;2022-07-23T05:13:34;15.50;99.90
24252;DHT22;12380;51.118;4.176;2022-07-23T05:15:59;15.60;99.90
24252;DHT22;12380;51.118;4.176;2022-07-23T05:18:26;15.70;99.90
24252;DHT22;12380;51.118;4.176;2022-07-23T05:20:53;15.80;99.90
24252;DHT22;12380;51.118;4.176;2022-07-23T05:23:20;15.90;99.90
24252;DHT22;12380;51.118;4.176;2022-07-23T05:25:46;16.10;99.90
24252;DHT22;12380;51.118;4.176;2022-07-23T05:28:12;16.20;99.90
24252;DHT22;12380;51.118;4.176;2022-07-23T05:30:39;16.30;99.90
24252;DHT22;12380;51.118;4.176;2022-07-23T05:33:07;16.30;99.90
24252;DHT22;12380;51.118;4.176;2022-07-23T05:35:33;16.50;99.90
24252;DHT22;12380;51.118;4.176;2022-07-23T05:37:59;16.50;99.90
24252;DHT22;12380;51.118;4.176;2022-07-23T05:40:25;16.60;99.90
24252;DHT22;12380;51.118;4.176;2022-07-23T05:42:51;16.60;99.90
24252;DHT22;12380;51.118;4.176;2022-07-23T05:45:17;16.70;99.90
24252;DHT22;12380;51.118;4.176;2022-07-23T05:47:47;16.80;99.90
24252;DHT22;12380;51.118;4.176;2022-07-23T05:50:15;16.90;99.90
24252;DHT22;12380;51.118;4.176;2022-07-23T05:52:42;17.10;99.90
24252;DHT22;12380;51.118;4.176;2022-07-23T05:55:12;17.30;99.90
24252;DHT22;12380;51.118;4.176;2022-07-23T05:57:38;17.40;99.90
24252;DHT22;12380;51.118;4.176;2022-07-23T06:00:08;17.50;99.90
24252;DHT22;12380;51.118;4.176;2022-07-23T06:02:34;17.70;99.90
24252;DHT22;12380;51.118;4.176;2022-07-23T06:05:01;17.90;99.90
24252;DHT22;12380;51.118;4.176;2022-07-23T06:07:27;18.10;99.90
24252;DHT22;12380;51.118;4.176;2022-07-23T06:09:53;18.50;99.90
24252;DHT22;12380;51.118;4.176;2022-07-23T06:12:19;18.70;99.90
24252;DHT22;12380;51.118;4.176;2022-07-23T06:14:47;18.60;99.90
24252;DHT22;12380;51.118;4.176;2022-07-23T06:17:15;18.70;99.90
24252;DHT22;12380;51.118;4.176;2022-07-23T06:19:43;19.10;99.90
24252;DHT22;12380;51.118;4.176;2022-07-23T06:22:09;19.30;99.90
24252;DHT22;12380;51.118;4.176;2022-07-23T06:24:35;19.90;99.90
24252;DHT22;12380;51.118;4.176;2022-07-23T06:27:00;20.10;77.60
24252;DHT22;12380;51.118;4.176;2022-07-23T06:29:26;20.60;48.10
24252;DHT22;12380;51.118;4.176;2022-07-23T06:31:52;20.50;65.50
24252;DHT22;12380;51.118;4.176;2022-07-23T06:34:18;20.70;11.20
24252;DHT22;12380;51.118;4.176;2022-07-23T06:36:46;20.80;3.80
24252;DHT22;12380;51.118;4.176;2022-07-23T06:39:11;21.10;31.10
24252;DHT22;12380;51.118;4.176;2022-07-23T06:41:37;21.30;3.60
24252;DHT22;12380;51.118;4.176;2022-07-23T06:44:04;21.30;1.00
24252;DHT22;12380;51.118;4.176;2022-07-23T06:46:30;21.50;32.80
24252;DHT22;12380;51.118;4.176;2022-07-23T06:48:56;21.40;1.00
24252;DHT22;12380;51.118;4.176;2022-07-23T06:51:24;21.50;1.00
24252;DHT22;12380;51.118;4.176;2022-07-23T06:53:50;21.80;1.00
24252;DHT22;12380;51.118;4.176;2022-07-23T06:56:16;22.20;1.00
24252;DHT22;12380;51.118;4.176;2022-07-23T06:58:42;22.40;1.00
24252;DHT22;12380;51.118;4.176;2022-07-23T07:01:08;22.20;1.00
24252;DHT22;12380;51.118;4.176;2022-07-23T07:03:34;22.40;1.00
24252;DHT22;12380;51.118;4.176;2022-07-23T07:06:03;22.70;1.00
24252;DHT22;12380;51.118;4.176;2022-07-23T07:08:30;23.00;1.00
24252;DHT22;12380;51.118;4.176;2022-07-23T07:10:55;23.20;1.00
24252;DHT22;12380;51.118;4.176;2022-07-23T07:13:22;23.50;1.00
24252;DHT22;12380;51.118;4.176;2022-07-23T07:15:50;23.60;1.00
24252;DHT22;12380;51.118;4.176;2022-07-23T07:18:16;23.50;1.00
24252;DHT22;12380;51.118;4.176;2022-07-23T07:20:44;23.90;1.00
24252;DHT22;12380;51.118;4.176;2022-07-23T07:23:09;24.30;1.00
24252;DHT22;12380;51.118;4.176;2022-07-23T07:25:35;24.50;1.00
24252;DHT22;12380;51.118;4.176;2022-07-23T07:28:01;24.60;99.90
24252;DHT22;12380;51.118;4.176;2022-07-23T07:30:29;24.20;99.90
24252;DHT22;12380;51.118;4.176;2022-07-23T07:32:55;23.90;1.00
24252;DHT22;12380;51.118;4.176;2022-07-23T07:35:22;23.40;1.00
24252;DHT22;12380;51.118;4.176;2022-07-23T07:37:48;22.70;1.00
24252;DHT22;12380;51.118;4.176;2022-07-23T07:40:14;23.20;1.00
24252;DHT22;12380;51.118;4.176;2022-07-23T07:42:54;23.10;1.00
24252;DHT22;12380;51.118;4.176;2022-07-23T07:45:22;22.70;1.00
24252;DHT22;12380;51.118;4.176;2022-07-23T07:47:50;23.00;1.00
24252;DHT22;12380;51.118;4.176;2022-07-23T07:50:16;23.70;1.00
24252;DHT22;12380;51.118;4.176;2022-07-23T07:52:41;24.30;1.00
24252;DHT22;12380;51.118;4.176;2022-07-23T07:55:09;24.60;99.90
24252;DHT22;12380;51.118;4.176;2022-07-23T07:57:35;24.80;99.90
24252;DHT22;12380;51.118;4.176;2022-07-23T08:00:02;24.80;99.90
24252;DHT22;12380;51.118;4.176;2022-07-23T08:02:40;25.20;1.00
24252;DHT22;12380;51.118;4.176;2022-07-23T08:05:06;25.10;1.00
24252;DHT22;12380;51.118;4.176;2022-07-23T08:07:32;25.00;1.00
24252;DHT22;12380;51.118;4.176;2022-07-23T08:09:57;24.90;1.00
24252;DHT22;12380;51.118;4.176;2022-07-23T08:12:23;24.70;1.00
24252;DHT22;12380;51.118;4.176;2022-07-23T08:14:49;25.30;1.00
24252;DHT22;12380;51.118;4.176;2022-07-23T08:17:14;25.80;99.90
24252;DHT22;12380;51.118;4.176;2022-07-23T08:19:40;26.10;1.00
24252;DHT22;12380;51.118;4.176;2022-07-23T08:22:08;26.50;99.90
24252;DHT22;12380;51.118;4.176;2022-07-23T08:24:33;26.60;1.00
24252;DHT22;12380;51.118;4.176;2022-07-23T08:27:02;26.10;99.90
24252;DHT22;12380;51.118;4.176;2022-07-23T08:29:30;26.10;1.00
24252;DHT22;12380;51.118;4.176;2022-07-23T08:31:57;25.80;1.00
24252;DHT22;12380;51.118;4.176;2022-07-23T08:34:23;25.90;1.00
24252;DHT22;12380;51.118;4.176;2022-07-23T08:36:51;25.90;1.00
24252;DHT22;12380;51.118;4.176;2022-07-23T08:39:17;26.20;99.90
24252;DHT22;12380;51.118;4.176;2022-07-23T08:41:45;26.40;1.00
24252;DHT22;12380;51.118;4.176;2022-07-23T08:44:13;26.40;99.90
24252;DHT22;12380;51.118;4.176;2022-07-23T08:46:41;26.10;40.10
24252;DHT22;12380;51.118;4.176;2022-07-23T08:49:07;26.70;99.90
24252;DHT22;12380;51.118;4.176;2022-07-23T08:51:34;26.50;75.50
24252;DHT22;12380;51.118;4.176;2022-07-23T08:54:00;27.20;1.00
24252;DHT22;12380;51.118;4.176;2022-07-23T08:56:26;27.00;1.00
24252;DHT22;12380;51.118;4.176;2022-07-23T08:58:54;26.70;99.90
24252;DHT22;12380;51.118;4.176;2022-07-23T09:01:20;26.30;99.90
24252;DHT22;12380;51.118;4.176;2022-07-23T09:03:46;25.90;1.00
24252;DHT22;12380;51.118;4.176;2022-07-23T09:06:11;26.10;1.00
24252;DHT22;12380;51.118;4.176;2022-07-23T09:08:39;26.70;1.00
24252;DHT22;12380;51.118;4.176;2022-07-23T09:11:25;26.60;1.00
24252;DHT22;12380;51.118;4.176;2022-07-23T09:13:54;27.00;1.00
24252;DHT22;12380;51.118;4.176;2022-07-23T09:16:27;26.60;99.90
24252;DHT22;12380;51.118;4.176;2022-07-23T09:19:03;26.60;95.30
24252;DHT22;12380;51.118;4.176;2022-07-23T09:21:30;27.40;1.00
24252;DHT22;12380;51.118;4.176;2022-07-23T09:24:02;27.40;1.00
24252;DHT22;12380;51.118;4.176;2022-07-23T09:29:17;28.10;1.00
24252;DHT22;12380;51.118;4.176;2022-07-23T09:36:42;27.90;1.00
24252;DHT22;12380;51.118;4.176;2022-07-23T09:39:09;27.90;1.00
24252;DHT22;12380;51.118;4.176;2022-07-23T09:41:43;27.90;1.00
24252;DHT22;12380;51.118;4.176;2022-07-23T09:44:16;27.90;1.00
24252;DHT22;12380;51.118;4.176;2022-07-23T09:46:43;27.30;1.00
24252;DHT22;12380;51.118;4.176;2022-07-23T09:49:14;27.80;1.00
24252;DHT22;12380;51.118;4.176;2022-07-23T09:51:59;27.90;1.00
24252;DHT22;12380;51.118;4.176;2022-07-23T09:54:32;28.10;1.00
24252;DHT22;12380;51.118;4.176;2022-07-23T09:57:11;28.80;1.00
24252;DHT22;12380;51.118;4.176;2022-07-23T09:59:42;29.70;99.90
24252;DHT22;12380;51.118;4.176;2022-07-23T10:02:14;30.20;99.90
24252;DHT22;12380;51.118;4.176;2022-07-23T10:04:43;29.90;1.00
24252;DHT22;12380;51.118;4.176;2022-07-23T10:07:11;29.70;1.00
24252;DHT22;12380;51.118;4.176;2022-07-23T10:09:42;29.90;1.00
24252;DHT22;12380;51.118;4.176;2022-07-23T10:12:10;30.30;1.00
24252;DHT22;12380;51.118;4.176;2022-07-23T10:14:42;30.20;1.00
24252;DHT22;12380;51.118;4.176;2022-07-23T10:17:08;30.50;1.00
24252;DHT22;12380;51.118;4.176;2022-07-23T10:19:34;30.00;1.00
24252;DHT22;12380;51.118;4.176;2022-07-23T10:22:11;29.50;1.00
24252;DHT22;12380;51.118;4.176;2022-07-23T10:30:05;29.60;1.00
24252;DHT22;12380;51.118;4.176;2022-07-23T10:35:50;30.40;1.00
24252;DHT22;12380;51.118;4.176;2022-07-23T10:38:43;30.90;1.00
24252;DHT22;12380;51.118;4.176;2022-07-23T10:41:15;31.00;1.00
24252;DHT22;12380;51.118;4.176;2022-07-23T10:44:12;30.00;1.00
24252;DHT22;12380;51.118;4.176;2022-07-23T10:47:05;29.80;1.00
24252;DHT22;12380;51.118;4.176;2022-07-23T10:49:49;29.70;1.00
24252;DHT22;12380;51.118;4.176;2022-07-23T10:52:25;30.20;1.00
24252;DHT22;12380;51.118;4.176;2022-07-23T10:57:47;30.10;1.00
24252;DHT22;12380;51.118;4.176;2022-07-23T11:00:21;30.50;1.00
24252;DHT22;12380;51.118;4.176;2022-07-23T11:02:51;30.50;1.00
24252;DHT22;12380;51.118;4.176;2022-07-23T11:05:20;30.90;1.00
24252;DHT22;12380;51.118;4.176;2022-07-23T11:13:31;30.20;1.00
24252;DHT22;12380;51.118;4.176;2022-07-23T11:24:08;29.90;1.00
24252;DHT22;12380;51.118;4.176;2022-07-23T11:31:54;29.20;1.00
24252;DHT22;12380;51.118;4.176;2022-07-23T11:37:10;30.00;1.00
24252;DHT22;12380;51.118;4.176;2022-07-23T11:39:37;30.40;1.00
24252;DHT22;12380;51.118;4.176;2022-07-23T11:42:05;30.50;1.00
24252;DHT22;12380;51.118;4.176;2022-07-23T11:44:39;30.30;1.00
24252;DHT22;12380;51.118;4.176;2022-07-23T11:47:09;29.90;1.00
24252;DHT22;12380;51.118;4.176;2022-07-23T11:49:36;30.30;1.00
24252;DHT22;12380;51.118;4.176;2022-07-23T11:52:07;31.00;1.00
24252;DHT22;12380;51.118;4.176;2022-07-23T11:54:35;31.50;1.00
24252;DHT22;12380;51.118;4.176;2022-07-23T11:57:02;30.90;1.00
24252;DHT22;12380;51.118;4.176;2022-07-23T11:59:35;31.10;1.00
24252;DHT22;12380;51.118;4.176;2022-07-23T12:02:04;30.50;1.00
24252;DHT22;12380;51.118;4.176;2022-07-23T12:04:49;30.40;1.00
24252;DHT22;12380;51.118;4.176;2022-07-23T12:09:49;30.60;1.00
24252;DHT22;12380;51.118;4.176;2022-07-23T12:12:15;30.00;1.00
24252;DHT22;12380;51.118;4.176;2022-07-23T12:14:54;30.40;1.00
24252;DHT22;12380;51.118;4.176;2022-07-23T12:17:22;30.30;1.00
24252;DHT22;12380;51.118;4.176;2022-07-23T12:19:52;30.20;1.00
24252;DHT22;12380;51.118;4.176;2022-07-23T12:22:19;30.40;1.00
24252;DHT22;12380;51.118;4.176;2022-07-23T12:25:00;30.10;1.00
24252;DHT22;12380;51.118;4.176;2022-07-23T12:27:27;30.90;1.00
24252;DHT22;12380;51.118;4.176;2022-07-23T12:29:53;31.30;1.00
24252;DHT22;12380;51.118;4.176;2022-07-23T12:32:24;30.90;1.00
24252;DHT22;12380;51.118;4.176;2022-07-23T12:35:09;30.00;1.00
24252;DHT22;12380;51.118;4.176;2022-07-23T12:37:39;29.90;1.00
24252;DHT22;12380;51.118;4.176;2022-07-23T12:40:23;30.10;1.00
24252;DHT22;12380;51.118;4.176;2022-07-23T12:45:20;30.30;1.00
24252;DHT22;12380;51.118;4.176;2022-07-23T12:48:05;30.60;1.00
24252;DHT22;12380;51.118;4.176;2022-07-23T12:53:45;31.40;1.00
24252;DHT22;12380;51.118;4.176;2022-07-23T12:56:20;30.90;1.00
24252;DHT22;12380;51.118;4.176;2022-07-23T12:58:50;31.20;1.00
24252;DHT22;12380;51.118;4.176;2022-07-23T13:06:38;32.30;1.00
24252;DHT22;12380;51.118;4.176;2022-07-23T13:09:12;31.80;1.00
24252;DHT22;12380;51.118;4.176;2022-07-23T13:11:41;30.80;1.00
24252;DHT22;12380;51.118;4.176;2022-07-23T13:14:07;31.50;1.00
24252;DHT22;12380;51.118;4.176;2022-07-23T13:16:33;31.60;1.00
24252;DHT22;12380;51.118;4.176;2022-07-23T13:19:00;31.60;1.00
24252;DHT22;12380;51.118;4.176;2022-07-23T13:21:29;31.70;1.00
24252;DHT22;12380;51.118;4.176;2022-07-23T13:23:56;31.20;1.00
24252;DHT22;12380;51.118;4.176;2022-07-23T13:26:22;31.20;1.00
24252;DHT22;12380;51.118;4.176;2022-07-23T13:28:48;31.30;1.00
24252;DHT22;12380;51.118;4.176;2022-07-23T13:31:14;31.80;1.00
24252;DHT22;12380;51.118;4.176;2022-07-23T13:33:40;31.30;1.00
24252;DHT22;12380;51.118;4.176;2022-07-23T13:36:07;31.00;1.00
24252;DHT22;12380;51.118;4.176;2022-07-23T13:38:33;32.00;1.00
24252;DHT22;12380;51.118;4.176;2022-07-23T13:40:59;32.20;1.00
24252;DHT22;12380;51.118;4.176;2022-07-23T13:43:29;32.20;1.00
24252;DHT22;12380;51.118;4.176;2022-07-23T13:45:55;32.60;1.00
24252;DHT22;12380;51.118;4.176;2022-07-23T13:48:21;32.80;1.00
24252;DHT22;12380;51.118;4.176;2022-07-23T13:50:49;32.50;1.00
24252;DHT22;12380;51.118;4.176;2022-07-23T13:53:20;31.80;1.00
24252;DHT22;12380;51.118;4.176;2022-07-23T13:55:48;31.40;1.00
24252;DHT22;12380;51.118;4.176;2022-07-23T13:58:14;31.70;1.00
24252;DHT22;12380;51.118;4.176;2022-07-23T14:00:46;31.90;1.00
24252;DHT22;12380;51.118;4.176;2022-07-23T14:03:12;31.50;1.00
24252;DHT22;12380;51.118;4.176;2022-07-23T14:05:38;31.10;1.00
24252;DHT22;12380;51.118;4.176;2022-07-23T14:08:04;30.40;1.00
24252;DHT22;12380;51.118;4.176;2022-07-23T14:10:30;30.80;1.00
24252;DHT22;12380;51.118;4.176;2022-07-23T14:12:59;30.90;1.00
24252;DHT22;12380;51.118;4.176;2022-07-23T14:15:27;30.80;1.00
24252;DHT22;12380;51.118;4.176;2022-07-23T14:17:56;31.00;1.00
24252;DHT22;12380;51.118;4.176;2022-07-23T14:20:23;31.10;1.00
24252;DHT22;12380;51.118;4.176;2022-07-23T14:22:49;31.50;1.00
24252;DHT22;12380;51.118;4.176;2022-07-23T14:25:18;31.10;1.00
24252;DHT22;12380;51.118;4.176;2022-07-23T14:27:45;31.00;1.00
24252;DHT22;12380;51.118;4.176;2022-07-23T14:30:12;31.00;1.00
24252;DHT22;12380;51.118;4.176;2022-07-23T14:32:38;31.50;1.00
24252;DHT22;12380;51.118;4.176;2022-07-23T14:35:05;31.80;1.00
24252;DHT22;12380;51.118;4.176;2022-07-23T14:37:33;31.80;1.00
24252;DHT22;12380;51.118;4.176;2022-07-23T14:40:00;32.10;1.00
24252;DHT22;12380;51.118;4.176;2022-07-23T14:42:26;31.80;1.00
24252;DHT22;12380;51.118;4.176;2022-07-23T14:44:52;31.40;1.00
24252;DHT22;12380;51.118;4.176;2022-07-23T14:47:18;30.70;1.00
24252;DHT22;12380;51.118;4.176;2022-07-23T14:49:44;30.70;1.00
24252;DHT22;12380;51.118;4.176;2022-07-23T14:52:09;30.30;1.00
24252;DHT22;12380;51.118;4.176;2022-07-23T14:54:35;30.40;1.00
24252;DHT22;12380;51.118;4.176;2022-07-23T14:57:01;30.40;1.00
24252;DHT22;12380;51.118;4.176;2022-07-23T14:59:28;30.70;1.00
24252;DHT22;12380;51.118;4.176;2022-07-23T15:01:56;31.20;1.00
24252;DHT22;12380;51.118;4.176;2022-07-23T15:04:24;31.40;1.00
24252;DHT22;12380;51.118;4.176;2022-07-23T15:06:50;31.80;1.00
24252;DHT22;12380;51.118;4.176;2022-07-23T15:09:16;31.50;1.00
24252;DHT22;12380;51.118;4.176;2022-07-23T15:11:42;31.30;1.00
24252;DHT22;12380;51.118;4.176;2022-07-23T15:14:11;31.00;1.00
24252;DHT22;12380;51.118;4.176;2022-07-23T15:16:39;31.00;1.00
24252;DHT22;12380;51.118;4.176;2022-07-23T15:19:05;31.10;1.00
24252;DHT22;12380;51.118;4.176;2022-07-23T15:21:31;31.40;1.00
24252;DHT22;12380;51.118;4.176;2022-07-23T15:23:59;30.60;1.00
24252;DHT22;12380;51.118;4.176;2022-07-23T15:26:29;30.70;1.00
24252;DHT22;12380;51.118;4.176;2022-07-23T15:28:56;30.80;1.00
24252;DHT22;12380;51.118;4.176;2022-07-23T15:31:21;30.10;1.00
24252;DHT22;12380;51.118;4.176;2022-07-23T15:33:48;29.70;1.00
24252;DHT22;12380;51.118;4.176;2022-07-23T15:36:18;29.80;1.00
24252;DHT22;12380;51.118;4.176;2022-07-23T15:38:45;29.60;1.00
24252;DHT22;12380;51.118;4.176;2022-07-23T15:41:12;29.80;1.00
24252;DHT22;12380;51.118;4.176;2022-07-23T15:43:37;29.60;1.00
24252;DHT22;12380;51.118;4.176;2022-07-23T15:46:04;29.90;1.00
24252;DHT22;12380;51.118;4.176;2022-07-23T15:48:31;30.00;1.00
24252;DHT22;12380;51.118;4.176;2022-07-23T15:51:02;30.10;1.00
24252;DHT22;12380;51.118;4.176;2022-07-23T15:53:28;30.00;1.00
24252;DHT22;12380;51.118;4.176;2022-07-23T15:55:56;30.20;1.00
24252;DHT22;12380;51.118;4.176;2022-07-23T15:58:23;30.30;1.00
24252;DHT22;12380;51.118;4.176;2022-07-23T16:00:51;30.20;1.00
24252;DHT22;12380;51.118;4.176;2022-07-23T16:03:17;30.20;1.00
24252;DHT22;12380;51.118;4.176;2022-07-23T16:05:42;29.90;1.00
24252;DHT22;12380;51.118;4.176;2022-07-23T16:08:10;29.80;1.00
24252;DHT22;12380;51.118;4.176;2022-07-23T16:10:35;29.90;1.00
24252;DHT22;12380;51.118;4.176;2022-07-23T16:13:02;30.20;1.00
24252;DHT22;12380;51.118;4.176;2022-07-23T16:15:28;29.70;1.00
24252;DHT22;12380;51.118;4.176;2022-07-23T16:17:55;29.20;1.00
24252;DHT22;12380;51.118;4.176;2022-07-23T16:20:24;29.30;1.00
24252;DHT22;12380;51.118;4.176;2022-07-23T16:22:49;29.10;8.90
24252;DHT22;12380;51.118;4.176;2022-07-23T16:25:15;29.10;5.70
24252;DHT22;12380;51.118;4.176;2022-07-23T16:27:41;29.20;1.00
24252;DHT22;12380;51.118;4.176;2022-07-23T16:30:09;29.60;1.00
24252;DHT22;12380;51.118;4.176;2022-07-23T16:32:35;29.80;8.20
24252;DHT22;12380;51.118;4.176;2022-07-23T16:35:01;30.00;1.00
24252;DHT22;12380;51.118;4.176;2022-07-23T16:37:26;29.80;1.00
24252;DHT22;12380;51.118;4.176;2022-07-23T16:39:52;29.30;1.00
24252;DHT22;12380;51.118;4.176;2022-07-23T16:42:18;29.20;1.00